sensor_id;sensor_type;location;lat;lon;timestamp;P1;durP1;ratioP1;P2;durP2;ratioP2
70026;SDS011;57506;50.092;15.804;2022-10-31T00:01:55;43.80;;;15.73;;
70026;SDS011;57506;50.092;15.804;2022-10-31T00:04:22;32.03;;;14.65;;
70026;SDS011;57506;50.092;15.804;2022-10-31T00:06:48;35.40;;;15.27;;
70026;SDS011;57506;50.092;15.804;2022-10-31T00:09:13;33.83;;;15.20;;
70026;SDS011;57506;50.092;15.804;2022-10-31T00:11:38;22.93;;;13.53;;
70026;SDS011;57506;50.092;15.804;2022-10-31T00:14:04;46.53;;;16.43;;
70026;SDS011;57506;50.092;15.804;2022-10-31T00:16:30;47.03;;;16.83;;
70026;SDS011;57506;50.092;15.804;2022-10-31T00:18:57;54.28;;;18.08;;
70026;SDS011;57506;50.092;15.804;2022-10-31T00:21:25;53.23;;;18.60;;
70026;SDS011;57506;50.092;15.804;2022-10-31T00:23:51;55.60;;;20.17;;
70026;SDS011;57506;50.092;15.804;2022-10-31T00:26:17;47.97;;;18.95;;
70026;SDS011;57506;50.092;15.804;2022-10-31T00:28:43;42.53;;;16.73;;
70026;SDS011;57506;50.092;15.804;2022-10-31T00:31:09;32.03;;;15.43;;
70026;SDS011;57506;50.092;15.804;2022-10-31T00:33:36;33.65;;;15.48;;
70026;SDS011;57506;50.092;15.804;2022-10-31T00:36:03;51.77;;;17.53;;
70026;SDS011;57506;50.092;15.804;2022-10-31T00:38:29;45.88;;;17.48;;
70026;SDS011;57506;50.092;15.804;2022-10-31T00:40:55;43.97;;;17.73;;
70026;SDS011;57506;50.092;15.804;2022-10-31T00:43:20;27.23;;;14.50;;
70026;SDS011;57506;50.092;15.804;2022-10-31T00:45:46;30.13;;;13.97;;
70026;SDS011;57506;50.092;15.804;2022-10-31T00:48:12;46.20;;;16.50;;
70026;SDS011;57506;50.092;15.804;2022-10-31T00:50:38;216.00;;;25.57;;
70026;SDS011;57506;50.092;15.804;2022-10-31T00:53:03;149.90;;;21.15;;
70026;SDS011;57506;50.092;15.804;2022-10-31T00:55:29;43.00;;;16.70;;
70026;SDS011;57506;50.092;15.804;2022-10-31T00:57:54;36.25;;;15.98;;
70026;SDS011;57506;50.092;15.804;2022-10-31T01:00:20;29.60;;;15.63;;
70026;SDS011;57506;50.092;15.804;2022-10-31T01:02:46;25.50;;;14.03;;
70026;SDS011;57506;50.092;15.804;2022-10-31T01:05:11;25.90;;;13.77;;
70026;SDS011;57506;50.092;15.804;2022-10-31T01:07:38;25.90;;;13.00;;
70026;SDS011;57506;50.092;15.804;2022-10-31T01:10:05;31.50;;;13.52;;
70026;SDS011;57506;50.092;15.804;2022-10-31T01:12:38;38.93;;;14.73;;
70026;SDS011;57506;50.092;15.804;2022-10-31T01:15:06;39.28;;;14.63;;
70026;SDS011;57506;50.092;15.804;2022-10-31T01:17:32;31.50;;;14.30;;
70026;SDS011;57506;50.092;15.804;2022-10-31T01:19:58;35.30;;;14.87;;
70026;SDS011;57506;50.092;15.804;2022-10-31T01:22:23;38.20;;;15.27;;
70026;SDS011;57506;50.092;15.804;2022-10-31T01:24:49;45.53;;;16.37;;
70026;SDS011;57506;50.092;15.804;2022-10-31T01:27:14;41.83;;;18.77;;
70026;SDS011;57506;50.092;15.804;2022-10-31T01:29:40;41.20;;;20.58;;
70026;SDS011;57506;50.092;15.804;2022-10-31T01:32:05;39.77;;;18.93;;
70026;SDS011;57506;50.092;15.804;2022-10-31T01:34:31;38.07;;;18.23;;
70026;SDS011;57506;50.092;15.804;2022-10-31T01:36:56;27.13;;;15.48;;
70026;SDS011;57506;50.092;15.804;2022-10-31T01:39:22;26.03;;;13.07;;
70026;SDS011;57506;50.092;15.804;2022-10-31T01:41:49;25.95;;;13.32;;
70026;SDS011;57506;50.092;15.804;2022-10-31T01:54:29;30.85;;;15.52;;
70026;SDS011;57506;50.092;15.804;2022-10-31T01:57:00;30.73;;;13.93;;
70026;SDS011;57506;50.092;15.804;2022-10-31T01:59:30;28.90;;;14.25;;
70026;SDS011;57506;50.092;15.804;2022-10-31T02:01:59;29.30;;;13.45;;
70026;SDS011;57506;50.092;15.804;2022-10-31T02:04:25;29.70;;;13.90;;
70026;SDS011;57506;50.092;15.804;2022-10-31T02:06:53;24.52;;;12.50;;
70026;SDS011;57506;50.092;15.804;2022-10-31T02:09:23;30.92;;;14.27;;
70026;SDS011;57506;50.092;15.804;2022-10-31T02:11:52;27.95;;;12.70;;
70026;SDS011;57506;50.092;15.804;2022-10-31T02:14:22;25.38;;;13.05;;
70026;SDS011;57506;50.092;15.804;2022-10-31T02:16:48;33.87;;;14.17;;
70026;SDS011;57506;50.092;15.804;2022-10-31T02:19:24;34.40;;;13.45;;
70026;SDS011;57506;50.092;15.804;2022-10-31T02:24:40;27.43;;;11.97;;
70026;SDS011;57506;50.092;15.804;2022-10-31T02:29:45;26.00;;;12.27;;
70026;SDS011;57506;50.092;15.804;2022-10-31T02:32:37;19.77;;;11.48;;
70026;SDS011;57506;50.092;15.804;2022-10-31T02:35:13;20.40;;;11.88;;
70026;SDS011;57506;50.092;15.804;2022-10-31T02:40:35;22.27;;;12.88;;
70026;SDS011;57506;50.092;15.804;2022-10-31T02:46:28;41.08;;;12.52;;
70026;SDS011;57506;50.092;15.804;2022-10-31T02:49:00;39.38;;;13.90;;
70026;SDS011;57506;50.092;15.804;2022-10-31T02:51:32;57.60;;;15.95;;
70026;SDS011;57506;50.092;15.804;2022-10-31T02:53:58;49.30;;;15.75;;
70026;SDS011;57506;50.092;15.804;2022-10-31T02:56:24;25.33;;;14.27;;
70026;SDS011;57506;50.092;15.804;2022-10-31T02:58:50;23.53;;;13.80;;
70026;SDS011;57506;50.092;15.804;2022-10-31T03:12:04;32.13;;;15.20;;
70026;SDS011;57506;50.092;15.804;2022-10-31T03:17:33;30.30;;;15.23;;
70026;SDS011;57506;50.092;15.804;2022-10-31T03:20:01;41.80;;;15.40;;
70026;SDS011;57506;50.092;15.804;2022-10-31T03:22:31;54.50;;;15.75;;
70026;SDS011;57506;50.092;15.804;2022-10-31T03:24:59;29.13;;;14.73;;
70026;SDS011;57506;50.092;15.804;2022-10-31T03:27:27;61.50;;;16.63;;
70026;SDS011;57506;50.092;15.804;2022-10-31T03:29:56;82.37;;;20.23;;
70026;SDS011;57506;50.092;15.804;2022-10-31T03:32:32;36.83;;;17.67;;
70026;SDS011;57506;50.092;15.804;2022-10-31T03:35:02;51.25;;;19.95;;
70026;SDS011;57506;50.092;15.804;2022-10-31T03:37:32;64.20;;;19.60;;
70026;SDS011;57506;50.092;15.804;2022-10-31T03:40:00;68.88;;;21.27;;
70026;SDS011;57506;50.092;15.804;2022-10-31T03:42:29;86.33;;;22.43;;
70026;SDS011;57506;50.092;15.804;2022-10-31T03:44:58;87.95;;;25.27;;
70026;SDS011;57506;50.092;15.804;2022-10-31T03:47:28;94.45;;;26.50;;
70026;SDS011;57506;50.092;15.804;2022-10-31T03:49:54;78.45;;;26.38;;
70026;SDS011;57506;50.092;15.804;2022-10-31T03:55:16;82.60;;;26.40;;
70026;SDS011;57506;50.092;15.804;2022-10-31T03:57:49;87.13;;;25.20;;
70026;SDS011;57506;50.092;15.804;2022-10-31T04:00:21;70.65;;;24.42;;
70026;SDS011;57506;50.092;15.804;2022-10-31T04:02:51;65.15;;;20.65;;
70026;SDS011;57506;50.092;15.804;2022-10-31T04:05:24;57.15;;;21.15;;
70026;SDS011;57506;50.092;15.804;2022-10-31T04:07:50;77.63;;;21.53;;
70026;SDS011;57506;50.092;15.804;2022-10-31T04:10:19;105.70;;;23.08;;
70026;SDS011;57506;50.092;15.804;2022-10-31T04:12:48;65.28;;;21.15;;
70026;SDS011;57506;50.092;15.804;2022-10-31T04:15:18;60.80;;;20.63;;
70026;SDS011;57506;50.092;15.804;2022-10-31T04:17:45;82.07;;;21.90;;
70026;SDS011;57506;50.092;15.804;2022-10-31T04:20:15;85.45;;;19.98;;
70026;SDS011;57506;50.092;15.804;2022-10-31T04:22:41;61.03;;;19.60;;
70026;SDS011;57506;50.092;15.804;2022-10-31T04:25:07;69.40;;;18.73;;
70026;SDS011;57506;50.092;15.804;2022-10-31T04:27:33;88.68;;;19.05;;
70026;SDS011;57506;50.092;15.804;2022-10-31T04:29:58;121.43;;;20.63;;
70026;SDS011;57506;50.092;15.804;2022-10-31T04:32:24;99.90;;;19.70;;
70026;SDS011;57506;50.092;15.804;2022-10-31T04:34:51;90.95;;;18.38;;
70026;SDS011;57506;50.092;15.804;2022-10-31T04:37:16;92.30;;;19.57;;
70026;SDS011;57506;50.092;15.804;2022-10-31T04:39:42;85.30;;;20.70;;
70026;SDS011;57506;50.092;15.804;2022-10-31T04:42:07;79.68;;;18.50;;
70026;SDS011;57506;50.092;15.804;2022-10-31T04:44:33;97.77;;;19.40;;
70026;SDS011;57506;50.092;15.804;2022-10-31T04:46:58;97.37;;;19.00;;
70026;SDS011;57506;50.092;15.804;2022-10-31T04:49:23;104.85;;;19.75;;
70026;SDS011;57506;50.092;15.804;2022-10-31T04:51:49;85.80;;;19.33;;
70026;SDS011;57506;50.092;15.804;2022-10-31T04:54:14;120.17;;;20.67;;
70026;SDS011;57506;50.092;15.804;2022-10-31T04:56:40;62.20;;;18.27;;
70026;SDS011;57506;50.092;15.804;2022-10-31T04:59:05;100.18;;;19.80;;
70026;SDS011;57506;50.092;15.804;2022-10-31T05:01:31;107.80;;;19.03;;
70026;SDS011;57506;50.092;15.804;2022-10-31T05:03:56;62.33;;;19.30;;
70026;SDS011;57506;50.092;15.804;2022-10-31T05:06:22;110.07;;;20.87;;
70026;SDS011;57506;50.092;15.804;2022-10-31T05:08:47;81.10;;;21.73;;
70026;SDS011;57506;50.092;15.804;2022-10-31T05:11:13;79.97;;;21.37;;
70026;SDS011;57506;50.092;15.804;2022-10-31T05:13:38;80.93;;;21.83;;
70026;SDS011;57506;50.092;15.804;2022-10-31T05:16:04;94.10;;;23.50;;
70026;SDS011;57506;50.092;15.804;2022-10-31T05:18:30;84.83;;;23.37;;
70026;SDS011;57506;50.092;15.804;2022-10-31T05:20:55;71.80;;;20.97;;
70026;SDS011;57506;50.092;15.804;2022-10-31T05:23:21;82.37;;;24.10;;
70026;SDS011;57506;50.092;15.804;2022-10-31T05:25:46;96.03;;;25.67;;
70026;SDS011;57506;50.092;15.804;2022-10-31T05:28:11;90.47;;;24.20;;
70026;SDS011;57506;50.092;15.804;2022-10-31T05:30:37;90.40;;;25.63;;
70026;SDS011;57506;50.092;15.804;2022-10-31T05:33:03;82.03;;;22.53;;
70026;SDS011;57506;50.092;15.804;2022-10-31T05:35:29;92.65;;;24.85;;
70026;SDS011;57506;50.092;15.804;2022-10-31T05:37:56;91.10;;;24.83;;
70026;SDS011;57506;50.092;15.804;2022-10-31T05:40:23;79.83;;;24.30;;
70026;SDS011;57506;50.092;15.804;2022-10-31T05:42:50;97.07;;;27.00;;
70026;SDS011;57506;50.092;15.804;2022-10-31T05:45:17;89.63;;;25.58;;
70026;SDS011;57506;50.092;15.804;2022-10-31T05:47:59;107.47;;;27.08;;
70026;SDS011;57506;50.092;15.804;2022-10-31T05:50:26;101.00;;;26.90;;
70026;SDS011;57506;50.092;15.804;2022-10-31T05:52:58;89.23;;;26.80;;
70026;SDS011;57506;50.092;15.804;2022-10-31T05:55:29;90.20;;;26.63;;
70026;SDS011;57506;50.092;15.804;2022-10-31T05:57:55;88.70;;;27.27;;
70026;SDS011;57506;50.092;15.804;2022-10-31T06:00:21;92.63;;;27.97;;
70026;SDS011;57506;50.092;15.804;2022-10-31T06:02:48;97.97;;;29.83;;
70026;SDS011;57506;50.092;15.804;2022-10-31T06:05:14;119.93;;;31.20;;
70026;SDS011;57506;50.092;15.804;2022-10-31T06:07:41;109.73;;;30.63;;
70026;SDS011;57506;50.092;15.804;2022-10-31T06:10:07;117.88;;;32.22;;
70026;SDS011;57506;50.092;15.804;2022-10-31T06:12:34;103.88;;;32.85;;
70026;SDS011;57506;50.092;15.804;2022-10-31T06:15:06;108.40;;;32.65;;
70026;SDS011;57506;50.092;15.804;2022-10-31T06:17:34;133.53;;;34.23;;
70026;SDS011;57506;50.092;15.804;2022-10-31T06:20:00;113.32;;;32.80;;
70026;SDS011;57506;50.092;15.804;2022-10-31T06:22:26;119.22;;;35.47;;
70026;SDS011;57506;50.092;15.804;2022-10-31T06:24:52;128.00;;;38.40;;
70026;SDS011;57506;50.092;15.804;2022-10-31T06:27:17;112.27;;;35.73;;
70026;SDS011;57506;50.092;15.804;2022-10-31T06:29:43;120.55;;;35.45;;
70026;SDS011;57506;50.092;15.804;2022-10-31T06:32:11;109.23;;;35.47;;
70026;SDS011;57506;50.092;15.804;2022-10-31T06:34:37;141.48;;;37.28;;
70026;SDS011;57506;50.092;15.804;2022-10-31T06:37:03;143.55;;;38.20;;
70026;SDS011;57506;50.092;15.804;2022-10-31T06:39:31;138.57;;;38.42;;
70026;SDS011;57506;50.092;15.804;2022-10-31T06:41:57;133.10;;;38.53;;
70026;SDS011;57506;50.092;15.804;2022-10-31T06:44:22;136.87;;;38.57;;
70026;SDS011;57506;50.092;15.804;2022-10-31T06:46:48;107.22;;;35.95;;
70026;SDS011;57506;50.092;15.804;2022-10-31T06:49:13;140.60;;;37.67;;
70026;SDS011;57506;50.092;15.804;2022-10-31T06:51:39;134.03;;;36.23;;
70026;SDS011;57506;50.092;15.804;2022-10-31T06:54:04;123.82;;;33.88;;
70026;SDS011;57506;50.092;15.804;2022-10-31T06:56:30;120.93;;;37.27;;
70026;SDS011;57506;50.092;15.804;2022-10-31T06:58:55;107.43;;;33.03;;
70026;SDS011;57506;50.092;15.804;2022-10-31T07:01:21;117.03;;;31.27;;
70026;SDS011;57506;50.092;15.804;2022-10-31T07:03:46;116.27;;;32.27;;
70026;SDS011;57506;50.092;15.804;2022-10-31T07:06:12;91.57;;;31.07;;
70026;SDS011;57506;50.092;15.804;2022-10-31T07:08:37;176.40;;;32.33;;
70026;SDS011;57506;50.092;15.804;2022-10-31T07:11:03;119.70;;;32.10;;
70026;SDS011;57506;50.092;15.804;2022-10-31T07:13:29;115.63;;;31.97;;
70026;SDS011;57506;50.092;15.804;2022-10-31T07:15:55;134.02;;;32.05;;
70026;SDS011;57506;50.092;15.804;2022-10-31T07:18:25;129.88;;;31.45;;
70026;SDS011;57506;50.092;15.804;2022-10-31T07:20:52;163.63;;;32.37;;
70026;SDS011;57506;50.092;15.804;2022-10-31T07:23:18;153.38;;;28.30;;
70026;SDS011;57506;50.092;15.804;2022-10-31T07:25:43;96.32;;;27.55;;
70026;SDS011;57506;50.092;15.804;2022-10-31T07:28:09;188.53;;;32.43;;
70026;SDS011;57506;50.092;15.804;2022-10-31T07:30:36;151.48;;;29.02;;
70026;SDS011;57506;50.092;15.804;2022-10-31T07:33:02;106.28;;;28.83;;
70026;SDS011;57506;50.092;15.804;2022-10-31T07:35:29;103.63;;;28.15;;
70026;SDS011;57506;50.092;15.804;2022-10-31T07:37:55;126.13;;;27.63;;
70026;SDS011;57506;50.092;15.804;2022-10-31T07:40:22;145.18;;;30.13;;
70026;SDS011;57506;50.092;15.804;2022-10-31T07:42:49;154.40;;;26.95;;
70026;SDS011;57506;50.092;15.804;2022-10-31T07:45:19;89.68;;;23.50;;
70026;SDS011;57506;50.092;15.804;2022-10-31T07:47:46;103.43;;;22.83;;
70026;SDS011;57506;50.092;15.804;2022-10-31T07:50:16;123.73;;;23.40;;
70026;SDS011;57506;50.092;15.804;2022-10-31T07:53:03;130.30;;;21.83;;
70026;SDS011;57506;50.092;15.804;2022-10-31T07:55:34;126.15;;;23.40;;
70026;SDS011;57506;50.092;15.804;2022-10-31T07:58:01;68.68;;;23.05;;
70026;SDS011;57506;50.092;15.804;2022-10-31T08:00:35;99.95;;;22.75;;
70026;SDS011;57506;50.092;15.804;2022-10-31T08:03:02;96.63;;;21.67;;
70026;SDS011;57506;50.092;15.804;2022-10-31T08:05:30;77.22;;;20.20;;
70026;SDS011;57506;50.092;15.804;2022-10-31T08:07:56;65.00;;;19.33;;
70026;SDS011;57506;50.092;15.804;2022-10-31T08:10:22;91.63;;;21.67;;
70026;SDS011;57506;50.092;15.804;2022-10-31T08:13:02;91.15;;;24.20;;
70026;SDS011;57506;50.092;15.804;2022-10-31T08:15:32;86.70;;;23.97;;
70026;SDS011;57506;50.092;15.804;2022-10-31T08:18:04;74.10;;;24.13;;
70026;SDS011;57506;50.092;15.804;2022-10-31T08:20:31;87.15;;;21.05;;
70026;SDS011;57506;50.092;15.804;2022-10-31T08:22:57;108.70;;;21.27;;
70026;SDS011;57506;50.092;15.804;2022-10-31T08:25:28;81.73;;;21.37;;
70026;SDS011;57506;50.092;15.804;2022-10-31T08:27:55;77.25;;;23.17;;
70026;SDS011;57506;50.092;15.804;2022-10-31T08:30:23;67.68;;;22.50;;
70026;SDS011;57506;50.092;15.804;2022-10-31T08:32:57;73.15;;;24.25;;
70026;SDS011;57506;50.092;15.804;2022-10-31T08:35:31;62.35;;;23.42;;
70026;SDS011;57506;50.092;15.804;2022-10-31T08:37:57;69.43;;;23.87;;
70026;SDS011;57506;50.092;15.804;2022-10-31T08:40:23;97.53;;;25.95;;
70026;SDS011;57506;50.092;15.804;2022-10-31T08:43:00;74.18;;;26.42;;
70026;SDS011;57506;50.092;15.804;2022-10-31T08:45:27;95.47;;;25.52;;
70026;SDS011;57506;50.092;15.804;2022-10-31T08:48:01;102.73;;;21.37;;
70026;SDS011;57506;50.092;15.804;2022-10-31T08:50:28;77.75;;;22.20;;
70026;SDS011;57506;50.092;15.804;2022-10-31T08:53:02;60.70;;;19.75;;
70026;SDS011;57506;50.092;15.804;2022-10-31T08:55:35;85.95;;;20.23;;
70026;SDS011;57506;50.092;15.804;2022-10-31T08:58:03;57.17;;;19.08;;
70026;SDS011;57506;50.092;15.804;2022-10-31T09:00:30;55.57;;;19.00;;
70026;SDS011;57506;50.092;15.804;2022-10-31T09:03:01;65.40;;;20.40;;
70026;SDS011;57506;50.092;15.804;2022-10-31T09:05:29;75.35;;;20.65;;
70026;SDS011;57506;50.092;15.804;2022-10-31T09:07:56;74.65;;;20.85;;
70026;SDS011;57506;50.092;15.804;2022-10-31T09:10:23;52.33;;;18.25;;
70026;SDS011;57506;50.092;15.804;2022-10-31T09:13:00;73.30;;;17.70;;
70026;SDS011;57506;50.092;15.804;2022-10-31T09:15:29;44.63;;;18.25;;
70026;SDS011;57506;50.092;15.804;2022-10-31T09:17:55;46.40;;;18.88;;
70026;SDS011;57506;50.092;15.804;2022-10-31T09:20:21;75.60;;;18.10;;
70026;SDS011;57506;50.092;15.804;2022-10-31T09:22:47;44.17;;;18.07;;
70026;SDS011;57506;50.092;15.804;2022-10-31T09:25:12;48.65;;;18.50;;
70026;SDS011;57506;50.092;15.804;2022-10-31T09:27:38;47.45;;;20.35;;
70026;SDS011;57506;50.092;15.804;2022-10-31T09:30:04;60.33;;;18.90;;
70026;SDS011;57506;50.092;15.804;2022-10-31T09:32:30;50.20;;;19.88;;
70026;SDS011;57506;50.092;15.804;2022-10-31T09:34:55;50.60;;;20.90;;
70026;SDS011;57506;50.092;15.804;2022-10-31T09:37:21;59.40;;;20.17;;
70026;SDS011;57506;50.092;15.804;2022-10-31T09:39:46;63.67;;;19.02;;
70026;SDS011;57506;50.092;15.804;2022-10-31T09:50:43;46.85;;;18.70;;
70026;SDS011;57506;50.092;15.804;2022-10-31T09:53:29;64.27;;;19.13;;
70026;SDS011;57506;50.092;15.804;2022-10-31T09:56:01;48.38;;;19.30;;
70026;SDS011;57506;50.092;15.804;2022-10-31T09:58:38;44.83;;;19.40;;
70026;SDS011;57506;50.092;15.804;2022-10-31T10:01:09;45.90;;;18.85;;
70026;SDS011;57506;50.092;15.804;2022-10-31T10:03:47;61.35;;;21.83;;
70026;SDS011;57506;50.092;15.804;2022-10-31T10:06:22;47.67;;;20.13;;
70026;SDS011;57506;50.092;15.804;2022-10-31T10:08:51;53.75;;;21.67;;
70026;SDS011;57506;50.092;15.804;2022-10-31T10:21:57;84.47;;;23.63;;
70026;SDS011;57506;50.092;15.804;2022-10-31T10:29:58;46.67;;;21.87;;
70026;SDS011;57506;50.092;15.804;2022-10-31T10:32:47;62.88;;;22.05;;
70026;SDS011;57506;50.092;15.804;2022-10-31T10:35:26;60.78;;;21.65;;
70026;SDS011;57506;50.092;15.804;2022-10-31T10:38:01;43.13;;;20.83;;
70026;SDS011;57506;50.092;15.804;2022-10-31T10:40:35;55.38;;;21.00;;
70026;SDS011;57506;50.092;15.804;2022-10-31T10:45:49;68.47;;;31.08;;
70026;SDS011;57506;50.092;15.804;2022-10-31T10:48:39;95.77;;;23.97;;
70026;SDS011;57506;50.092;15.804;2022-10-31T10:51:20;78.50;;;24.30;;
70026;SDS011;57506;50.092;15.804;2022-10-31T10:58:54;65.57;;;23.00;;
70026;SDS011;57506;50.092;15.804;2022-10-31T11:01:21;56.17;;;23.93;;
70026;SDS011;57506;50.092;15.804;2022-10-31T11:03:47;57.65;;;23.90;;
70026;SDS011;57506;50.092;15.804;2022-10-31T11:06:16;82.93;;;24.65;;
70026;SDS011;57506;50.092;15.804;2022-10-31T11:08:51;77.50;;;25.07;;
70026;SDS011;57506;50.092;15.804;2022-10-31T11:13:43;71.65;;;26.58;;
70026;SDS011;57506;50.092;15.804;2022-10-31T11:16:12;86.27;;;25.80;;
70026;SDS011;57506;50.092;15.804;2022-10-31T11:18:51;78.88;;;25.13;;
70026;SDS011;57506;50.092;15.804;2022-10-31T11:21:38;69.30;;;25.10;;
70026;SDS011;57506;50.092;15.804;2022-10-31T11:24:03;82.47;;;25.42;;
70026;SDS011;57506;50.092;15.804;2022-10-31T11:27:02;63.22;;;25.52;;
70026;SDS011;57506;50.092;15.804;2022-10-31T11:29:36;82.43;;;27.07;;
70026;SDS011;57506;50.092;15.804;2022-10-31T11:32:02;82.28;;;27.17;;
70026;SDS011;57506;50.092;15.804;2022-10-31T11:37:10;65.68;;;25.33;;
70026;SDS011;57506;50.092;15.804;2022-10-31T11:39:41;59.63;;;24.52;;
70026;SDS011;57506;50.092;15.804;2022-10-31T11:42:18;83.60;;;28.13;;
70026;SDS011;57506;50.092;15.804;2022-10-31T11:44:49;91.90;;;29.13;;
70026;SDS011;57506;50.092;15.804;2022-10-31T11:47:17;84.73;;;29.30;;
70026;SDS011;57506;50.092;15.804;2022-10-31T11:49:46;103.10;;;31.08;;
70026;SDS011;57506;50.092;15.804;2022-10-31T11:52:18;104.50;;;30.73;;
70026;SDS011;57506;50.092;15.804;2022-10-31T11:59:55;71.65;;;30.38;;
70026;SDS011;57506;50.092;15.804;2022-10-31T12:02:22;86.82;;;29.60;;
70026;SDS011;57506;50.092;15.804;2022-10-31T12:04:52;83.07;;;27.37;;
70026;SDS011;57506;50.092;15.804;2022-10-31T12:07:28;94.50;;;26.73;;
70026;SDS011;57506;50.092;15.804;2022-10-31T12:09:53;64.93;;;26.25;;
70026;SDS011;57506;50.092;15.804;2022-10-31T12:17:17;65.20;;;26.03;;
70026;SDS011;57506;50.092;15.804;2022-10-31T12:22:39;127.03;;;26.33;;
70026;SDS011;57506;50.092;15.804;2022-10-31T12:28:14;71.17;;;27.43;;
70026;SDS011;57506;50.092;15.804;2022-10-31T12:36:09;88.38;;;27.45;;
70026;SDS011;57506;50.092;15.804;2022-10-31T12:39:05;85.53;;;27.33;;
70026;SDS011;57506;50.092;15.804;2022-10-31T12:58:46;74.13;;;28.70;;
70026;SDS011;57506;50.092;15.804;2022-10-31T13:01:26;85.88;;;28.38;;
70026;SDS011;57506;50.092;15.804;2022-10-31T13:06:33;111.53;;;29.45;;
70026;SDS011;57506;50.092;15.804;2022-10-31T13:09:06;93.70;;;27.67;;
70026;SDS011;57506;50.092;15.804;2022-10-31T13:11:41;63.25;;;29.38;;
70026;SDS011;57506;50.092;15.804;2022-10-31T13:17:04;81.93;;;26.35;;
70026;SDS011;57506;50.092;15.804;2022-10-31T13:19:34;69.93;;;28.58;;
70026;SDS011;57506;50.092;15.804;2022-10-31T13:22:10;82.70;;;29.03;;
70026;SDS011;57506;50.092;15.804;2022-10-31T13:27:22;81.57;;;30.52;;
70026;SDS011;57506;50.092;15.804;2022-10-31T13:30:01;75.25;;;29.88;;
70026;SDS011;57506;50.092;15.804;2022-10-31T13:32:43;116.78;;;30.45;;
70026;SDS011;57506;50.092;15.804;2022-10-31T13:35:20;105.37;;;30.07;;
70026;SDS011;57506;50.092;15.804;2022-10-31T13:37:50;138.52;;;31.70;;
70026;SDS011;57506;50.092;15.804;2022-10-31T13:40:32;134.15;;;32.15;;
70026;SDS011;57506;50.092;15.804;2022-10-31T13:45:53;108.07;;;35.05;;
70026;SDS011;57506;50.092;15.804;2022-10-31T13:48:33;102.73;;;34.53;;
70026;SDS011;57506;50.092;15.804;2022-10-31T13:51:05;142.23;;;35.08;;
70026;SDS011;57506;50.092;15.804;2022-10-31T13:56:23;107.90;;;38.15;;
70026;SDS011;57506;50.092;15.804;2022-10-31T14:01:29;147.50;;;37.17;;
70026;SDS011;57506;50.092;15.804;2022-10-31T14:04:01;152.52;;;36.40;;
70026;SDS011;57506;50.092;15.804;2022-10-31T14:06:42;142.68;;;35.72;;
70026;SDS011;57506;50.092;15.804;2022-10-31T14:17:56;238.55;;;35.25;;
70026;SDS011;57506;50.092;15.804;2022-10-31T14:23:56;156.98;;;35.95;;
70026;SDS011;57506;50.092;15.804;2022-10-31T14:26:33;193.00;;;38.80;;
70026;SDS011;57506;50.092;15.804;2022-10-31T14:28:51;184.07;;;39.20;;
70026;SDS011;57506;50.092;15.804;2022-10-31T14:33:58;258.40;;;40.13;;
70026;SDS011;57506;50.092;15.804;2022-10-31T14:52:36;244.30;;;40.20;;
70026;SDS011;57506;50.092;15.804;2022-10-31T14:55:04;201.57;;;37.30;;
70026;SDS011;57506;50.092;15.804;2022-10-31T14:57:37;237.32;;;41.40;;
70026;SDS011;57506;50.092;15.804;2022-10-31T15:00:12;278.88;;;42.35;;
70026;SDS011;57506;50.092;15.804;2022-10-31T15:05:29;455.65;;;41.83;;
70026;SDS011;57506;50.092;15.804;2022-10-31T15:07:57;304.30;;;39.53;;
70026;SDS011;57506;50.092;15.804;2022-10-31T15:10:32;191.90;;;38.17;;
70026;SDS011;57506;50.092;15.804;2022-10-31T15:13:18;359.27;;;41.28;;
70026;SDS011;57506;50.092;15.804;2022-10-31T15:15:46;293.90;;;39.25;;
70026;SDS011;57506;50.092;15.804;2022-10-31T15:18:15;325.83;;;40.92;;
70026;SDS011;57506;50.092;15.804;2022-10-31T15:20:42;345.97;;;42.30;;
70026;SDS011;57506;50.092;15.804;2022-10-31T15:23:10;173.77;;;34.70;;
70026;SDS011;57506;50.092;15.804;2022-10-31T15:25:45;206.68;;;34.08;;
70026;SDS011;57506;50.092;15.804;2022-10-31T15:28:29;227.75;;;35.90;;
70026;SDS011;57506;50.092;15.804;2022-10-31T15:31:00;206.40;;;36.43;;
70026;SDS011;57506;50.092;15.804;2022-10-31T15:33:31;235.20;;;35.28;;
70026;SDS011;57506;50.092;15.804;2022-10-31T15:36:16;239.02;;;37.00;;
70026;SDS011;57506;50.092;15.804;2022-10-31T15:38:44;166.63;;;35.65;;
70026;SDS011;57506;50.092;15.804;2022-10-31T15:43:44;204.15;;;34.38;;
70026;SDS011;57506;50.092;15.804;2022-10-31T15:46:11;254.02;;;35.72;;
70026;SDS011;57506;50.092;15.804;2022-10-31T15:48:37;235.57;;;36.63;;
70026;SDS011;57506;50.092;15.804;2022-10-31T15:51:05;309.48;;;41.80;;
70026;SDS011;57506;50.092;15.804;2022-10-31T15:53:35;253.77;;;38.00;;
70026;SDS011;57506;50.092;15.804;2022-10-31T15:56:02;278.17;;;39.03;;
70026;SDS011;57506;50.092;15.804;2022-10-31T15:58:32;217.88;;;37.00;;
70026;SDS011;57506;50.092;15.804;2022-10-31T16:01:19;164.32;;;35.75;;
70026;SDS011;57506;50.092;15.804;2022-10-31T16:03:54;194.13;;;37.33;;
70026;SDS011;57506;50.092;15.804;2022-10-31T16:06:45;177.45;;;37.35;;
70026;SDS011;57506;50.092;15.804;2022-10-31T16:09:24;247.70;;;38.07;;
70026;SDS011;57506;50.092;15.804;2022-10-31T16:11:50;207.55;;;38.22;;
70026;SDS011;57506;50.092;15.804;2022-10-31T16:14:16;202.67;;;38.13;;
70026;SDS011;57506;50.092;15.804;2022-10-31T16:16:51;211.85;;;43.13;;
70026;SDS011;57506;50.092;15.804;2022-10-31T16:22:03;214.77;;;38.70;;
70026;SDS011;57506;50.092;15.804;2022-10-31T16:24:33;357.92;;;41.00;;
70026;SDS011;57506;50.092;15.804;2022-10-31T16:27:05;197.63;;;56.23;;
70026;SDS011;57506;50.092;15.804;2022-10-31T16:29:44;209.30;;;48.17;;
70026;SDS011;57506;50.092;15.804;2022-10-31T16:34:56;229.38;;;38.47;;
70026;SDS011;57506;50.092;15.804;2022-10-31T16:37:26;127.40;;;33.00;;
70026;SDS011;57506;50.092;15.804;2022-10-31T16:39:54;175.13;;;41.00;;
70026;SDS011;57506;50.092;15.804;2022-10-31T16:42:20;156.80;;;35.60;;
70026;SDS011;57506;50.092;15.804;2022-10-31T16:44:45;160.33;;;37.83;;
70026;SDS011;57506;50.092;15.804;2022-10-31T16:47:16;148.23;;;37.70;;
70026;SDS011;57506;50.092;15.804;2022-10-31T16:49:42;171.88;;;34.85;;
70026;SDS011;57506;50.092;15.804;2022-10-31T16:52:11;230.15;;;36.90;;
70026;SDS011;57506;50.092;15.804;2022-10-31T16:54:40;172.23;;;32.10;;
70026;SDS011;57506;50.092;15.804;2022-10-31T16:57:05;145.75;;;34.17;;
70026;SDS011;57506;50.092;15.804;2022-10-31T16:59:32;167.13;;;39.03;;
70026;SDS011;57506;50.092;15.804;2022-10-31T17:01:58;212.93;;;40.63;;
70026;SDS011;57506;50.092;15.804;2022-10-31T17:04:26;234.80;;;38.55;;
70026;SDS011;57506;50.092;15.804;2022-10-31T17:06:51;210.17;;;38.00;;
70026;SDS011;57506;50.092;15.804;2022-10-31T17:09:16;157.02;;;34.72;;